createdAt,value
2022-12-12T00:00:11.106Z,57.66
2022-12-12T00:01:11.110Z,57.76
2022-12-12T00:02:11.211Z,57.76
2022-12-12T00:03:11.280Z,58.04
2022-12-12T00:04:11.100Z,57.76
2022-12-12T00:05:11.525Z,57.38
2022-12-12T00:06:11.093Z,57.10
2022-12-12T00:07:11.093Z,57.19
2022-12-12T00:08:11.129Z,57.47
2022-12-12T00:09:11.088Z,58.04
2022-12-12T00:10:11.086Z,58.80
2022-12-12T00:11:11.083Z,58.89
2022-12-12T00:12:11.087Z,59.83
2022-12-12T00:13:11.103Z,60.02
2022-12-12T00:14:11.077Z,60.11
2022-12-12T00:15:11.542Z,60.39
2022-12-12T00:16:11.223Z,60.49
2022-12-12T00:17:11.076Z,60.77
2022-12-12T00:18:11.069Z,61.71
2022-12-12T00:19:11.067Z,61.71
2022-12-12T00:20:11.071Z,61.99
2022-12-12T00:21:11.068Z,62.09
2022-12-12T00:22:11.064Z,62.18
2022-12-12T00:23:11.068Z,62.28
2022-12-12T00:24:11.060Z,61.71
2022-12-12T00:25:11.503Z,61.62
2022-12-12T00:26:11.059Z,61.62
2022-12-12T00:27:11.058Z,61.52
2022-12-12T00:28:11.046Z,62.18
2022-12-12T00:29:11.075Z,61.52
2022-12-12T00:30:11.043Z,61.43
2022-12-12T00:31:11.123Z,61.81
2022-12-12T00:32:11.040Z,61.52
2022-12-12T00:33:11.040Z,61.52
2022-12-12T00:34:11.036Z,60.96
2022-12-12T00:35:11.345Z,60.68
2022-12-12T00:36:11.030Z,60.96
2022-12-12T00:37:11.030Z,61.15
2022-12-12T00:38:11.034Z,61.05
2022-12-12T00:39:16.709Z,60.96
2022-12-12T00:40:11.034Z,60.68
2022-12-12T00:41:11.022Z,60.77
2022-12-12T00:42:11.018Z,60.68
2022-12-12T00:43:11.033Z,60.77
2022-12-12T00:44:11.017Z,60.96
2022-12-12T00:45:11.363Z,61.05
2022-12-12T00:46:11.068Z,61.24
2022-12-12T00:47:11.058Z,61.52
2022-12-12T00:48:11.003Z,61.81
2022-12-12T00:49:11.005Z,61.43
2022-12-12T00:50:11.001Z,61.99
2022-12-12T00:51:11.000Z,61.15
2022-12-12T00:52:10.996Z,61.15
2022-12-12T00:53:10.995Z,60.86
2022-12-12T00:54:10.995Z,60.02
2022-12-12T00:55:11.244Z,60.02
2022-12-12T00:56:10.988Z,59.55
2022-12-12T00:57:10.988Z,59.36
2022-12-12T00:58:10.987Z,59.17
2022-12-12T00:59:10.984Z,59.45
2022-12-12T01:00:10.980Z,59.64
2022-12-12T01:01:11.004Z,59.45
2022-12-12T01:02:11.027Z,59.17
2022-12-12T01:03:10.990Z,58.98
2022-12-12T01:04:10.970Z,59.08
2022-12-12T01:05:11.371Z,59.27
2022-12-12T01:06:10.973Z,59.64
2022-12-12T01:07:10.971Z,58.89
2022-12-12T01:08:10.996Z,58.89
2022-12-12T01:09:10.969Z,59.45
2022-12-12T01:10:10.959Z,59.45
2022-12-12T01:11:10.958Z,59.55
2022-12-12T01:12:10.953Z,58.70
2022-12-12T01:13:10.962Z,59.08
2022-12-12T01:14:10.953Z,58.89
2022-12-12T01:15:11.270Z,58.51
2022-12-12T01:16:11.019Z,58.61
2022-12-12T01:17:10.969Z,57.95
2022-12-12T01:18:10.947Z,57.29
2022-12-12T01:19:10.948Z,57.47
2022-12-12T01:20:10.941Z,57.19
2022-12-12T01:21:10.945Z,57.38
2022-12-12T01:22:10.937Z,57.19
2022-12-12T01:23:10.938Z,57.29
2022-12-12T01:24:10.932Z,57.66
2022-12-12T01:25:11.229Z,57.85
2022-12-12T01:26:10.936Z,58.04
2022-12-12T01:27:10.959Z,58.42
2022-12-12T01:28:10.931Z,58.61
2022-12-12T01:29:10.927Z,57.95
2022-12-12T01:30:10.922Z,57.95
2022-12-12T01:31:11.027Z,58.04
2022-12-12T01:32:10.918Z,58.32
2022-12-12T01:33:10.961Z,58.51
2022-12-12T01:34:10.920Z,58.23
2022-12-12T01:35:11.335Z,58.42
2022-12-12T01:36:10.910Z,58.70
2022-12-12T01:37:10.939Z,58.80
2022-12-12T01:38:10.908Z,60.11
2022-12-12T01:39:10.909Z,60.58
2022-12-12T01:40:10.906Z,60.77
2022-12-12T01:41:10.905Z,61.43
2022-12-12T01:42:10.898Z,61.71
2022-12-12T01:43:10.903Z,61.24
2022-12-12T01:44:10.900Z,60.77
2022-12-12T01:45:11.308Z,60.77
2022-12-12T01:46:10.960Z,60.68
2022-12-12T01:47:10.993Z,60.49
2022-12-12T01:48:10.887Z,60.11
2022-12-12T01:49:10.926Z,59.36
2022-12-12T01:50:10.886Z,58.98
2022-12-12T01:51:10.884Z,58.61
2022-12-12T01:52:10.882Z,58.23
2022-12-12T01:53:10.886Z,57.85
2022-12-12T01:54:10.878Z,57.85
2022-12-12T01:55:11.268Z,57.85
2022-12-12T01:56:10.875Z,57.95
2022-12-12T01:57:10.877Z,57.76
2022-12-12T01:58:10.968Z,57.66
2022-12-12T01:59:10.874Z,58.04
2022-12-12T02:00:10.869Z,57.47
2022-12-12T02:01:10.954Z,57.47
2022-12-12T02:02:10.983Z,57.76
2022-12-12T02:03:10.865Z,57.95
2022-12-12T02:04:10.859Z,58.04
2022-12-12T02:05:11.330Z,58.61
2022-12-12T02:06:10.856Z,58.89
2022-12-12T02:07:10.864Z,59.45
2022-12-12T02:08:10.912Z,60.21
2022-12-12T02:09:10.855Z,59.74
2022-12-12T02:10:10.850Z,60.39
2022-12-12T02:11:10.850Z,60.49
2022-12-12T02:12:10.897Z,60.77
2022-12-12T02:13:10.854Z,60.49
2022-12-12T02:14:10.845Z,60.86
2022-12-12T02:15:11.310Z,61.05
2022-12-12T02:16:10.869Z,61.99
2022-12-12T02:17:10.845Z,61.62
2022-12-12T02:18:12.850Z,61.52
2022-12-12T02:19:10.837Z,61.05
2022-12-12T02:20:10.830Z,59.83
2022-12-12T02:21:10.854Z,59.45
2022-12-12T02:22:10.835Z,59.08
2022-12-12T02:23:10.827Z,59.08
2022-12-12T02:24:10.824Z,59.17
2022-12-12T02:25:11.242Z,58.98
2022-12-12T02:26:10.820Z,59.27
2022-12-12T02:27:10.821Z,59.17
2022-12-12T02:28:10.816Z,57.66
2022-12-12T02:29:10.819Z,55.87
2022-12-12T02:30:10.814Z,55.02
2022-12-12T02:31:10.869Z,54.64
2022-12-12T02:32:10.809Z,54.36
2022-12-12T02:33:10.819Z,55.02
2022-12-12T02:34:10.810Z,55.02
2022-12-12T02:35:11.242Z,55.02
2022-12-12T02:36:10.802Z,55.11
2022-12-12T02:37:10.827Z,55.40
2022-12-12T02:38:10.805Z,55.11
2022-12-12T02:39:10.803Z,54.74
2022-12-12T02:40:10.799Z,54.55
2022-12-12T02:41:10.799Z,53.89
2022-12-12T02:42:10.796Z,53.61
2022-12-12T02:43:10.797Z,53.89
2022-12-12T02:44:10.790Z,53.70
2022-12-12T02:45:11.116Z,54.55
2022-12-12T02:46:10.787Z,55.02
2022-12-12T02:47:10.785Z,55.96
2022-12-12T02:48:10.787Z,56.25
2022-12-12T02:49:10.786Z,57.10
2022-12-12T02:50:10.791Z,58.51
2022-12-12T02:51:10.783Z,59.08
2022-12-12T02:52:10.777Z,59.45
2022-12-12T02:53:10.797Z,59.27
2022-12-12T02:54:10.774Z,59.83
2022-12-12T02:55:11.290Z,59.92
2022-12-12T02:56:10.771Z,59.17
2022-12-12T02:57:10.773Z,58.89
2022-12-12T02:58:10.767Z,59.27
2022-12-12T02:59:10.770Z,59.45
2022-12-12T03:00:10.783Z,59.74
2022-12-12T03:01:10.833Z,60.11
2022-12-12T03:02:10.812Z,59.95
2022-12-12T03:03:10.761Z,60.02
2022-12-12T03:04:10.756Z,60.02
2022-12-12T03:05:11.125Z,59.92
2022-12-12T03:06:10.760Z,60.39
2022-12-12T03:07:10.759Z,59.92
2022-12-12T03:08:10.852Z,60.11
2022-12-12T03:09:10.772Z,60.02
2022-12-12T03:10:10.756Z,59.36
2022-12-12T03:11:10.751Z,60.02
2022-12-12T03:12:10.748Z,60.11
2022-12-12T03:13:10.750Z,61.05
2022-12-12T03:14:10.741Z,61.71
2022-12-12T03:15:11.159Z,61.81
2022-12-12T03:16:10.811Z,61.52
2022-12-12T03:17:10.742Z,60.77
2022-12-12T03:18:10.737Z,60.02
2022-12-12T03:19:10.737Z,59.55
2022-12-12T03:20:10.734Z,59.08
2022-12-12T03:21:10.734Z,58.70
2022-12-12T03:22:10.731Z,58.61
2022-12-12T03:23:10.732Z,58.70
2022-12-12T03:24:10.737Z,59.08
2022-12-12T03:25:11.077Z,59.64
2022-12-12T03:26:10.730Z,59.17
2022-12-12T03:27:10.724Z,58.61
2022-12-12T03:28:10.725Z,58.61
2022-12-12T03:29:10.723Z,59.45
2022-12-12T03:30:10.726Z,59.83
2022-12-12T03:31:10.798Z,61.71
2022-12-12T03:32:10.717Z,62.28
2022-12-12T03:33:10.716Z,62.09
2022-12-12T03:34:10.718Z,62.28
2022-12-12T03:35:11.155Z,62.37
2022-12-12T03:36:10.715Z,63.03
2022-12-12T03:37:10.708Z,63.50
2022-12-12T03:38:10.709Z,64.35
2022-12-12T03:39:10.713Z,64.92
2022-12-12T03:40:10.709Z,64.83
2022-12-12T03:41:10.725Z,63.41
2022-12-12T03:42:10.706Z,62.65
2022-12-12T03:43:10.699Z,62.47
2022-12-12T03:44:10.702Z,62.28
2022-12-12T03:45:11.021Z,61.99
2022-12-12T03:46:10.727Z,62.56
2022-12-12T03:47:10.695Z,63.79
2022-12-12T03:48:10.706Z,64.73
2022-12-12T03:49:10.691Z,64.73
2022-12-12T03:50:10.691Z,64.73
2022-12-12T03:51:10.691Z,63.79
2022-12-12T03:52:10.692Z,62.18
2022-12-12T03:53:10.684Z,61.05
2022-12-12T03:54:10.692Z,60.77
2022-12-12T03:55:11.228Z,61.15
2022-12-12T03:56:10.682Z,60.68
2022-12-12T03:57:10.702Z,58.51
2022-12-12T03:58:10.682Z,56.81
2022-12-12T03:59:10.679Z,56.34
2022-12-12T04:00:10.679Z,56.53
2022-12-12T04:01:10.689Z,57.10
2022-12-12T04:02:10.759Z,58.32
2022-12-12T04:03:10.691Z,58.51
2022-12-12T04:04:10.697Z,56.91
2022-12-12T04:05:10.915Z,55.49
2022-12-12T04:06:10.673Z,54.64
2022-12-12T04:07:10.665Z,54.64
2022-12-12T04:08:10.825Z,55.78
2022-12-12T04:09:10.662Z,56.06
2022-12-12T04:10:10.665Z,57.66
2022-12-12T04:11:10.657Z,59.11
2022-12-12T04:12:10.669Z,58.63
2022-12-12T04:13:10.679Z,58.26
2022-12-12T04:14:10.657Z,58.26
2022-12-12T04:15:11.173Z,58.63
2022-12-12T04:16:10.723Z,58.45
2022-12-12T04:17:10.660Z,59.20
2022-12-12T04:18:10.652Z,58.63
2022-12-12T04:19:10.647Z,58.82
2022-12-12T04:20:10.695Z,58.63
2022-12-12T04:21:10.647Z,57.88
2022-12-12T04:22:15.262Z,55.52
2022-12-12T04:23:10.640Z,54.11
2022-12-12T04:24:10.650Z,53.73
2022-12-12T04:25:11.023Z,54.02
2022-12-12T04:26:10.642Z,54.21
2022-12-12T04:27:10.637Z,55.15
2022-12-12T04:28:10.640Z,56.09
2022-12-12T04:29:10.651Z,56.65
2022-12-12T04:30:10.638Z,57.22
2022-12-12T04:31:10.643Z,58.54
2022-12-12T04:32:10.711Z,59.11
2022-12-12T04:33:10.641Z,58.73
2022-12-12T04:34:10.631Z,57.78
2022-12-12T04:35:10.765Z,57.22
2022-12-12T04:36:10.640Z,57.03
2022-12-12T04:37:10.624Z,57.50
2022-12-12T04:38:10.625Z,57.22
2022-12-12T04:39:10.621Z,57.22
2022-12-12T04:40:10.622Z,57.12
2022-12-12T04:41:10.619Z,57.22
2022-12-12T04:42:10.622Z,57.41
2022-12-12T04:43:10.616Z,57.31
2022-12-12T04:44:10.618Z,57.22
2022-12-12T04:45:10.883Z,57.12
2022-12-12T04:46:10.682Z,58.07
2022-12-12T04:47:10.611Z,58.07
2022-12-12T04:48:10.615Z,58.07
2022-12-12T04:49:10.609Z,56.46
2022-12-12T04:50:10.640Z,55.90
2022-12-12T04:51:10.610Z,56.37
2022-12-12T04:52:10.609Z,57.41
2022-12-12T04:53:14.863Z,57.97
2022-12-12T04:54:10.609Z,58.92
2022-12-12T04:55:10.965Z,59.39
2022-12-12T04:56:10.603Z,59.48
2022-12-12T04:57:10.605Z,58.63
2022-12-12T04:58:10.606Z,58.54
2022-12-12T04:59:10.600Z,59.20
2022-12-12T05:00:10.604Z,59.30
2022-12-12T05:01:10.673Z,60.05
2022-12-12T05:02:10.699Z,60.71
2022-12-12T05:03:10.595Z,60.99
2022-12-12T05:04:10.597Z,60.80
2022-12-12T05:05:10.871Z,59.86
2022-12-12T05:06:10.593Z,58.73
2022-12-12T05:07:10.590Z,58.82
2022-12-12T05:08:10.648Z,59.58
2022-12-12T05:09:10.588Z,60.80
2022-12-12T05:10:10.590Z,62.03
2022-12-12T05:11:10.586Z,62.97
2022-12-12T05:12:10.590Z,63.63
2022-12-12T05:13:10.594Z,62.59
2022-12-12T05:14:10.585Z,61.18
2022-12-12T05:15:10.943Z,59.30
2022-12-12T05:16:10.584Z,57.31
2022-12-12T05:17:10.600Z,54.86
2022-12-12T05:18:10.582Z,52.88
2022-12-12T05:19:10.577Z,51.37
2022-12-12T05:20:10.579Z,50.34
2022-12-12T05:21:10.596Z,49.30
2022-12-12T05:22:10.578Z,50.99
2022-12-12T05:23:10.574Z,54.02
2022-12-12T05:24:10.575Z,56.27
2022-12-12T05:25:10.816Z,58.73
2022-12-12T05:26:10.577Z,60.05
2022-12-12T05:27:10.569Z,60.61
2022-12-12T05:28:10.569Z,60.42
2022-12-12T05:29:10.566Z,60.71
2022-12-12T05:30:10.574Z,60.14
2022-12-12T05:31:10.642Z,59.30
2022-12-12T05:32:10.564Z,58.54
2022-12-12T05:33:10.666Z,58.63
2022-12-12T05:34:10.573Z,58.73
2022-12-12T05:35:10.732Z,57.22
2022-12-12T05:36:10.560Z,56.37
2022-12-12T05:37:10.559Z,55.43
2022-12-12T05:38:10.559Z,53.83
2022-12-12T05:39:10.554Z,53.17
2022-12-12T05:40:10.557Z,52.41
2022-12-12T05:41:10.553Z,53.36
2022-12-12T05:42:10.555Z,52.88
2022-12-12T05:43:10.549Z,52.03
2022-12-12T05:44:10.565Z,51.09
2022-12-12T05:45:10.727Z,50.81
2022-12-12T05:46:10.593Z,50.52
2022-12-12T05:47:10.545Z,49.77
2022-12-12T05:48:10.547Z,50.05
2022-12-12T05:49:10.564Z,48.55
2022-12-12T05:50:10.544Z,47.89
2022-12-12T05:51:10.541Z,46.75
2022-12-12T05:52:10.545Z,46.85
2022-12-12T05:53:10.537Z,47.79
2022-12-12T05:54:10.556Z,48.08
2022-12-12T05:55:10.871Z,47.98
2022-12-12T05:56:10.542Z,47.89
2022-12-12T05:57:10.539Z,47.60
2022-12-12T05:58:10.537Z,47.98
2022-12-12T05:59:10.534Z,47.98
2022-12-12T06:00:10.537Z,47.70
2022-12-12T06:01:10.535Z,48.36
2022-12-12T06:02:10.558Z,48.83
2022-12-12T06:03:10.528Z,49.77
2022-12-12T06:04:10.622Z,50.43
2022-12-12T06:05:11.153Z,50.90
2022-12-12T06:06:10.537Z,51.09
2022-12-12T06:07:10.525Z,50.71
2022-12-12T06:08:10.665Z,48.08
2022-12-12T06:09:10.520Z,45.25
2022-12-12T06:10:10.525Z,43.93
2022-12-12T06:11:10.521Z,43.65
2022-12-12T06:12:10.526Z,44.21
2022-12-12T06:13:10.518Z,45.34
2022-12-12T06:14:10.521Z,46.47
2022-12-12T06:15:10.856Z,47.79
2022-12-12T06:16:10.561Z,49.30
2022-12-12T06:17:10.515Z,50.62
2022-12-12T06:18:10.523Z,50.99
2022-12-12T06:19:10.512Z,50.05
2022-12-12T06:20:10.520Z,50.34
2022-12-12T06:21:10.529Z,50.71
2022-12-12T06:22:10.514Z,50.90
2022-12-12T06:23:10.508Z,51.66
2022-12-12T06:24:10.519Z,51.37
2022-12-12T06:25:10.739Z,51.37
2022-12-12T06:26:10.511Z,50.90
2022-12-12T06:27:10.508Z,49.87
2022-12-12T06:28:10.585Z,48.55
2022-12-12T06:29:10.506Z,47.89
2022-12-12T06:30:10.510Z,48.93
2022-12-12T06:31:12.158Z,49.30
2022-12-12T06:32:10.506Z,50.99
2022-12-12T06:33:10.501Z,51.18
2022-12-12T06:34:10.504Z,53.26
2022-12-12T06:35:10.734Z,54.49
2022-12-12T06:36:10.502Z,55.43
2022-12-12T06:37:16.918Z,56.27
2022-12-12T06:38:10.499Z,56.56
2022-12-12T06:39:10.500Z,56.09
2022-12-12T06:40:10.497Z,55.62
2022-12-12T06:41:10.504Z,54.96
2022-12-12T06:42:10.497Z,53.83
2022-12-12T06:43:10.492Z,53.26
2022-12-12T06:44:10.498Z,52.32
2022-12-12T06:45:11.033Z,51.47
2022-12-12T06:46:10.526Z,50.71
2022-12-12T06:47:10.497Z,49.77
2022-12-12T06:48:10.491Z,49.40
2022-12-12T06:49:10.496Z,49.21
2022-12-12T06:50:10.489Z,49.40
2022-12-12T06:51:10.485Z,49.21
2022-12-12T06:52:10.490Z,49.21
2022-12-12T06:53:10.499Z,48.93
2022-12-12T06:54:10.486Z,48.83
2022-12-12T06:55:10.827Z,49.30
2022-12-12T06:56:10.485Z,49.96
2022-12-12T06:57:10.479Z,50.24
2022-12-12T06:58:10.482Z,50.52
2022-12-12T06:59:10.485Z,50.52
2022-12-12T07:00:10.479Z,50.05
2022-12-12T07:01:10.522Z,49.49
2022-12-12T07:02:10.478Z,48.64
2022-12-12T07:03:10.511Z,48.08
2022-12-12T07:04:10.478Z,47.79
2022-12-12T07:05:10.911Z,48.27
2022-12-12T07:06:10.475Z,48.93
2022-12-12T07:07:10.471Z,49.11
2022-12-12T07:08:10.622Z,49.11
2022-12-12T07:09:10.491Z,48.45
2022-12-12T07:10:10.487Z,48.45
2022-12-12T07:11:10.465Z,48.45
2022-12-12T07:12:10.468Z,48.36
2022-12-12T07:13:10.478Z,48.45
2022-12-12T07:14:10.466Z,47.70
2022-12-12T07:15:10.709Z,46.75
2022-12-12T07:16:10.524Z,46.75
2022-12-12T07:17:10.463Z,47.51
2022-12-12T07:18:10.465Z,48.17
2022-12-12T07:19:10.460Z,49.30
2022-12-12T07:20:10.466Z,50.71
2022-12-12T07:21:10.463Z,51.09
2022-12-12T07:22:10.867Z,51.09
2022-12-12T07:23:10.458Z,50.90
2022-12-12T07:24:10.458Z,50.99
2022-12-12T07:25:10.842Z,50.99
2022-12-12T07:26:10.456Z,50.71
2022-12-12T07:27:10.457Z,49.30
2022-12-12T07:28:10.466Z,48.27
2022-12-12T07:29:10.450Z,48.08
2022-12-12T07:30:10.456Z,47.98
2022-12-12T07:31:10.479Z,47.89
2022-12-12T07:32:10.456Z,47.51
2022-12-12T07:33:10.448Z,47.98
2022-12-12T07:34:10.451Z,47.89
2022-12-12T07:35:10.734Z,47.89
2022-12-12T07:36:10.456Z,48.27
2022-12-12T07:37:10.455Z,47.32
2022-12-12T07:38:10.479Z,48.08
2022-12-12T07:39:11.800Z,48.36
2022-12-12T07:40:10.448Z,48.93
2022-12-12T07:41:10.466Z,49.40
2022-12-12T07:42:10.443Z,50.34
2022-12-12T07:43:10.445Z,50.34
2022-12-12T07:44:10.443Z,50.52
2022-12-12T07:45:14.977Z,50.90
2022-12-12T07:46:10.480Z,50.71
2022-12-12T07:47:10.445Z,50.62
2022-12-12T07:48:10.438Z,49.87
2022-12-12T07:49:10.443Z,50.15
2022-12-12T07:50:10.439Z,49.87
2022-12-12T07:51:10.441Z,50.15
2022-12-12T07:52:10.439Z,49.11
2022-12-12T07:53:10.441Z,48.74
2022-12-12T07:54:10.438Z,49.21
2022-12-12T07:55:10.785Z,48.45
2022-12-12T07:56:10.438Z,49.02
2022-12-12T07:57:10.464Z,49.30
2022-12-12T07:58:10.446Z,48.93
2022-12-12T07:59:10.436Z,48.64
2022-12-12T08:00:10.445Z,48.36
2022-12-12T08:01:14.347Z,48.74
2022-12-12T08:02:10.457Z,49.58
2022-12-12T08:03:10.444Z,50.34
2022-12-12T08:04:10.436Z,51.03
2022-12-12T08:05:10.610Z,50.74
2022-12-12T08:06:10.431Z,50.84
2022-12-12T08:07:10.433Z,50.65
2022-12-12T08:08:10.509Z,50.84
2022-12-12T08:09:10.432Z,51.03
2022-12-12T08:10:10.438Z,51.21
2022-12-12T08:11:10.433Z,51.50
2022-12-12T08:12:10.429Z,51.59
2022-12-12T08:13:10.458Z,51.78
2022-12-12T08:14:13.077Z,52.06
2022-12-12T08:15:10.771Z,51.78
2022-12-12T08:16:10.465Z,51.68
2022-12-12T08:17:10.443Z,49.99
2022-12-12T08:18:10.529Z,49.23
2022-12-12T08:19:10.442Z,49.23
2022-12-12T08:20:10.429Z,50.08
2022-12-12T08:21:10.430Z,50.36
2022-12-12T08:22:10.428Z,50.65
2022-12-12T08:23:10.430Z,51.68
2022-12-12T08:24:10.427Z,51.78
2022-12-12T08:25:10.806Z,51.31
2022-12-12T08:26:10.429Z,50.93
2022-12-12T08:27:15.309Z,49.51
2022-12-12T08:28:10.427Z,48.57
2022-12-12T08:29:10.457Z,49.23
2022-12-12T08:30:10.430Z,48.66
2022-12-12T08:31:10.463Z,49.04
2022-12-12T08:32:10.432Z,49.42
2022-12-12T08:33:10.434Z,50.18
2022-12-12T08:34:10.429Z,50.08
2022-12-12T08:35:10.642Z,50.36
2022-12-12T08:36:10.430Z,51.21
2022-12-12T08:37:10.436Z,51.59
2022-12-12T08:38:10.434Z,50.86
2022-12-12T08:39:10.436Z,50.01
2022-12-12T08:40:10.435Z,49.82
2022-12-12T08:41:10.437Z,49.35
2022-12-12T08:42:10.534Z,49.35
2022-12-12T08:43:10.471Z,49.16
2022-12-12T08:44:10.435Z,48.69
2022-12-12T08:45:10.652Z,48.41
2022-12-12T08:46:16.777Z,48.69
2022-12-12T08:47:10.485Z,48.60
2022-12-12T08:48:10.437Z,48.13
2022-12-12T08:49:10.444Z,47.94
2022-12-12T08:50:10.440Z,47.84
2022-12-12T08:51:10.442Z,48.60
2022-12-12T08:52:10.440Z,48.13
2022-12-12T08:53:10.448Z,47.94
2022-12-12T08:54:10.443Z,48.41
2022-12-12T08:55:10.558Z,48.50
2022-12-12T08:56:10.444Z,48.03
2022-12-12T08:57:10.447Z,48.13
2022-12-12T08:58:10.448Z,47.75
2022-12-12T08:59:10.467Z,47.75
2022-12-12T09:00:10.451Z,46.99
2022-12-12T09:01:10.475Z,46.52
2022-12-12T09:02:10.557Z,45.39
2022-12-12T09:03:10.564Z,44.54
2022-12-12T09:04:10.452Z,45.01
2022-12-12T09:05:10.734Z,45.29
2022-12-12T09:06:10.501Z,45.86
2022-12-12T09:07:10.458Z,46.23
2022-12-12T09:08:10.531Z,46.71
2022-12-12T09:09:10.480Z,46.71
2022-12-12T09:10:10.462Z,46.90
2022-12-12T09:11:10.461Z,46.14
2022-12-12T09:12:10.459Z,45.39
2022-12-12T09:13:10.465Z,45.48
2022-12-12T09:14:10.464Z,45.48
2022-12-12T09:15:10.619Z,46.33
2022-12-12T09:16:10.543Z,46.33
2022-12-12T09:17:10.496Z,47.09
2022-12-12T09:18:10.471Z,47.84
2022-12-12T09:19:10.573Z,49.73
2022-12-12T09:20:10.469Z,51.81
2022-12-12T09:21:10.474Z,52.66
2022-12-12T09:22:10.484Z,53.22
2022-12-12T09:23:10.478Z,53.41
2022-12-12T09:24:10.477Z,53.88
2022-12-12T09:25:10.685Z,53.59
2022-12-12T09:26:10.479Z,54.44
2022-12-12T09:27:10.481Z,55.04
2022-12-12T09:28:10.482Z,55.11
2022-12-12T09:29:10.484Z,55.39
2022-12-12T09:30:10.485Z,55.51
2022-12-12T09:31:10.585Z,55.04
2022-12-12T09:32:10.485Z,55.23
2022-12-12T09:33:10.521Z,54.28
2022-12-12T09:34:10.505Z,54.10
2022-12-12T09:35:10.710Z,53.25
2022-12-12T09:36:10.491Z,52.40
2022-12-12T09:37:10.500Z,51.92
2022-12-12T09:38:14.371Z,51.62
2022-12-12T09:39:10.500Z,51.81
2022-12-12T09:40:10.498Z,50.76
2022-12-12T09:41:10.508Z,50.48
2022-12-12T09:42:10.502Z,50.86
2022-12-12T09:43:10.505Z,50.70
2022-12-12T09:44:10.507Z,50.79
2022-12-12T09:45:10.621Z,50.51
2022-12-12T09:46:10.557Z,49.94
2022-12-12T09:47:10.512Z,48.74
2022-12-12T09:48:10.512Z,47.61
2022-12-12T09:49:10.541Z,45.79
2022-12-12T09:50:10.678Z,44.94
2022-12-12T09:51:10.520Z,45.03
2022-12-12T09:52:10.525Z,45.60
2022-12-12T09:53:10.529Z,44.94
2022-12-12T09:54:10.527Z,45.41
2022-12-12T09:55:10.542Z,45.62
2022-12-12T09:56:10.530Z,46.19
2022-12-12T09:57:10.538Z,46.50
2022-12-12T09:58:10.534Z,46.88
2022-12-12T09:59:10.548Z,47.72
2022-12-12T10:00:10.600Z,48.67
2022-12-12T10:01:10.624Z,51.88
2022-12-12T10:02:10.606Z,50.02
2022-12-12T10:03:10.550Z,46.99
2022-12-12T10:04:10.549Z,44.53
2022-12-12T10:05:10.593Z,43.40
2022-12-12T10:07:10.569Z,41.72
2022-12-12T10:08:10.639Z,40.49
2022-12-12T10:09:10.569Z,38.48
2022-12-12T10:10:11.015Z,37.63
2022-12-12T10:11:10.575Z,37.63
2022-12-12T10:12:10.577Z,37.04
2022-12-12T10:13:10.583Z,36.66
2022-12-12T10:14:10.585Z,37.04
2022-12-12T10:15:11.004Z,37.52
2022-12-12T10:16:10.628Z,37.71
2022-12-12T10:17:10.604Z,37.90
2022-12-12T10:18:10.597Z,37.71
2022-12-12T10:19:10.602Z,37.71
2022-12-12T10:20:10.919Z,37.99
2022-12-12T10:21:10.629Z,39.22
2022-12-12T10:22:10.608Z,40.54
2022-12-12T10:23:10.616Z,43.19
2022-12-12T10:24:10.642Z,44.98
2022-12-12T10:25:10.622Z,45.27
2022-12-12T10:26:10.663Z,44.89
2022-12-12T10:27:10.627Z,44.51
2022-12-12T10:28:10.628Z,47.63
2022-12-12T10:29:10.641Z,49.33
2022-12-12T10:30:10.778Z,49.43
2022-12-12T10:31:10.727Z,50.44
2022-12-12T10:32:10.641Z,49.78
2022-12-12T10:33:10.652Z,50.79
2022-12-12T10:34:10.650Z,51.36
2022-12-12T10:35:17.792Z,51.92
2022-12-12T10:36:10.657Z,52.87
2022-12-12T10:37:10.681Z,53.25
2022-12-12T10:38:10.662Z,53.37
2022-12-12T10:39:10.678Z,54.15
2022-12-12T10:40:10.665Z,52.51
2022-12-12T10:41:10.677Z,53.94
2022-12-12T10:42:10.677Z,54.60
2022-12-12T10:43:10.684Z,53.37
2022-12-12T10:44:10.692Z,52.07
2022-12-12T10:45:11.028Z,50.11
2022-12-12T10:46:10.928Z,47.85
2022-12-12T10:47:10.784Z,47.85
2022-12-12T10:48:10.694Z,46.14
2022-12-12T10:49:10.700Z,46.52
2022-12-12T10:50:13.369Z,46.55
2022-12-12T10:51:10.708Z,46.90
2022-12-12T10:52:10.710Z,48.88
2022-12-12T10:53:10.743Z,50.94
2022-12-12T10:54:10.717Z,52.36
2022-12-12T10:55:11.034Z,53.52
2022-12-12T10:56:10.726Z,51.53
2022-12-12T10:57:16.559Z,52.38
2022-12-12T10:58:10.737Z,51.60
2022-12-12T10:59:10.749Z,53.39
2022-12-12T11:00:10.745Z,54.72
2022-12-12T11:01:10.806Z,51.62
2022-12-12T11:02:11.196Z,51.81
2022-12-12T11:03:10.781Z,52.10
2022-12-12T11:04:10.761Z,49.38
2022-12-12T11:05:11.078Z,47.87
2022-12-12T11:06:10.773Z,47.87
2022-12-12T11:07:10.779Z,48.25
2022-12-12T11:08:10.851Z,48.15
2022-12-12T11:09:10.811Z,48.22
2022-12-12T11:10:10.791Z,51.72
2022-12-12T11:11:10.799Z,54.18
2022-12-12T11:12:10.802Z,55.31
2022-12-12T11:13:10.819Z,56.01
2022-12-12T11:14:10.812Z,53.76
2022-12-12T11:15:11.166Z,55.18
2022-12-12T11:16:13.493Z,53.85
2022-12-12T11:17:10.833Z,55.06
2022-12-12T11:18:10.831Z,55.63
2022-12-12T11:19:10.839Z,58.28
2022-12-12T11:20:10.848Z,59.19
2022-12-12T11:21:10.851Z,59.09
2022-12-12T11:22:10.856Z,59.57
2022-12-12T11:23:16.622Z,58.84
2022-12-12T11:24:10.866Z,56.20
2022-12-12T11:25:11.299Z,55.44
2022-12-12T11:26:10.897Z,55.15
2022-12-12T11:27:10.884Z,53.45
2022-12-12T11:28:10.887Z,52.79
2022-12-12T11:29:10.899Z,52.69
2022-12-12T11:30:10.944Z,54.02
2022-12-12T11:31:10.911Z,55.91
2022-12-12T11:32:10.940Z,57.42
2022-12-12T11:33:10.928Z,57.33
2022-12-12T11:34:10.935Z,60.23
2022-12-12T11:35:11.296Z,61.93
2022-12-12T11:36:10.936Z,65.53
2022-12-12T11:37:10.945Z,67.79
2022-12-12T11:38:10.953Z,66.60
2022-12-12T11:39:10.958Z,61.30
2022-12-12T11:40:10.958Z,57.07
2022-12-12T11:41:11.000Z,54.26
2022-12-12T11:42:10.972Z,55.02
2022-12-12T11:43:10.983Z,53.36
2022-12-12T11:44:14.461Z,51.68
2022-12-12T11:45:11.282Z,48.93
2022-12-12T11:46:11.017Z,47.53
2022-12-12T11:47:11.006Z,45.55
2022-12-12T11:48:11.017Z,44.53
2022-12-12T11:49:11.020Z,41.97
2022-12-12T11:50:11.291Z,40.66
2022-12-12T11:51:11.034Z,41.61
2022-12-12T11:52:11.034Z,41.99
2022-12-12T11:53:11.046Z,39.83
2022-12-12T11:54:11.048Z,43.87
2022-12-12T11:55:11.292Z,47.85
2022-12-12T11:56:11.067Z,50.15
2022-12-12T11:57:11.091Z,52.98
2022-12-12T11:58:11.082Z,50.78
2022-12-12T11:59:11.086Z,51.04
2022-12-12T12:00:11.093Z,51.07
2022-12-12T12:01:11.097Z,49.43
2022-12-12T12:02:11.107Z,48.70
2022-12-12T12:03:11.187Z,47.11
2022-12-12T12:04:11.196Z,45.59
2022-12-12T12:05:11.389Z,46.14
2022-12-12T12:06:11.136Z,46.71
2022-12-12T12:07:11.140Z,50.28
2022-12-12T12:08:11.192Z,52.18
2022-12-12T12:09:11.156Z,49.27
2022-12-12T12:10:11.167Z,45.83
2022-12-12T12:11:11.173Z,48.51
2022-12-12T12:12:11.183Z,50.95
2022-12-12T12:13:11.221Z,51.70
2022-12-12T12:14:11.199Z,53.59
2022-12-12T12:15:11.556Z,54.93
2022-12-12T12:16:11.284Z,53.78
2022-12-12T12:17:11.217Z,56.06
2022-12-12T12:18:11.241Z,56.56
2022-12-12T12:19:11.233Z,54.98
2022-12-12T12:20:11.243Z,53.75
2022-12-12T12:21:11.245Z,46.94
2022-12-12T12:22:11.279Z,41.89
2022-12-12T12:23:11.288Z,42.39
2022-12-12T12:24:11.279Z,44.10
2022-12-12T12:25:11.704Z,43.27
2022-12-12T12:26:11.287Z,42.89
2022-12-12T12:27:11.291Z,42.22
2022-12-12T12:28:11.424Z,40.70
2022-12-12T12:29:11.334Z,39.09
2022-12-12T12:30:11.319Z,38.81
2022-12-12T12:31:11.394Z,38.43
2022-12-12T12:32:11.336Z,41.82
2022-12-12T12:33:11.369Z,46.45
2022-12-12T12:34:11.354Z,51.03
2022-12-12T12:35:11.590Z,53.75
2022-12-12T12:36:13.139Z,55.26
2022-12-12T12:37:11.373Z,51.50
2022-12-12T12:38:11.386Z,45.26
2022-12-12T12:39:11.426Z,41.92
2022-12-12T12:40:11.401Z,42.01
2022-12-12T12:41:11.407Z,39.18
2022-12-12T12:42:11.425Z,36.82
2022-12-12T12:43:11.431Z,35.11
2022-12-12T12:44:11.441Z,34.63
2022-12-12T12:45:11.840Z,33.98
2022-12-12T12:46:11.529Z,34.25
2022-12-12T12:47:11.459Z,36.53
2022-12-12T12:48:11.481Z,35.22
2022-12-12T12:49:11.477Z,33.70
2022-12-12T12:50:11.866Z,32.86
2022-12-12T12:51:11.495Z,33.80
2022-12-12T12:52:11.509Z,37.88
2022-12-12T12:53:11.513Z,37.86